createdAt,value
2019-03-17T00:00:01.419Z,98517.20
2019-03-17T00:02:30.931Z,98508.75
2019-03-17T00:05:00.411Z,98511.52
2019-03-17T00:07:29.853Z,98507.66
2019-03-17T00:09:59.575Z,98496.75
2019-03-17T00:12:31.373Z,98497.15
2019-03-17T00:15:05.671Z,98486.66
2019-03-17T00:17:31.923Z,98484.02
2019-03-17T00:20:01.410Z,98476.67
2019-03-17T00:22:30.977Z,98464.02
2019-03-17T00:25:09.111Z,98466.47
2019-03-17T00:32:55.530Z,98441.59
2019-03-17T00:35:25.032Z,98445.27
2019-03-17T00:37:54.434Z,98445.48
2019-03-17T00:43:18.205Z,98434.94
2019-03-17T00:45:47.631Z,98420.06
2019-03-17T00:48:17.030Z,98420.58
2019-03-17T00:50:48.822Z,98411.60
2019-03-17T00:53:17.624Z,98411.36
2019-03-17T00:55:49.673Z,98405.85
2019-03-17T00:58:19.141Z,98394.53
2019-03-17T01:03:38.772Z,98374.83
2019-03-17T01:06:08.206Z,98371.45
2019-03-17T01:08:39.347Z,98363.30
2019-03-17T01:11:08.780Z,98358.80
2019-03-17T01:13:38.252Z,98355.09
2019-03-17T01:16:07.689Z,98346.28
2019-03-17T01:18:37.061Z,98343.33
2019-03-17T01:21:08.458Z,98342.95
2019-03-17T01:29:02.521Z,98343.59
2019-03-17T01:34:26.140Z,98337.98
2019-03-17T01:36:55.526Z,98334.31
2019-03-17T01:39:25.052Z,98318.06
2019-03-17T01:41:54.470Z,98321.06
2019-03-17T01:44:24.029Z,98322.98
2019-03-17T01:46:53.436Z,98317.69
2019-03-17T01:49:22.882Z,98311.80
2019-03-17T01:51:52.275Z,98302.37
2019-03-17T01:54:21.668Z,98296.52
2019-03-17T01:56:51.148Z,98295.14
2019-03-17T01:59:20.518Z,98287.63
2019-03-17T02:01:49.912Z,98285.58
2019-03-17T02:04:19.722Z,98274.52
2019-03-17T02:06:49.386Z,98262.09
2019-03-17T02:09:18.794Z,98256.22
2019-03-17T02:14:23.683Z,98246.19
2019-03-17T02:17:04.649Z,98232.34
2019-03-17T02:19:34.375Z,98227.78
2019-03-17T02:22:24.309Z,98220.50
2019-03-17T02:24:53.692Z,98212.69
2019-03-17T02:27:43.684Z,98213.33
2019-03-17T02:30:13.470Z,98197.30
2019-03-17T02:32:45.184Z,98181.89
2019-03-17T02:35:14.618Z,98171.77
2019-03-17T02:40:33.045Z,98169.41
2019-03-17T02:43:02.362Z,98164.55
2019-03-17T02:45:31.872Z,98158.66
2019-03-17T02:48:21.766Z,98152.25
2019-03-17T02:50:51.387Z,98139.45
2019-03-17T02:53:20.781Z,98129.53
2019-03-17T02:55:52.193Z,98124.50
2019-03-17T02:58:21.637Z,98116.48
2019-03-17T03:00:51.147Z,98101.31
2019-03-17T03:03:39.672Z,98098.23
2019-03-17T03:06:14.323Z,98098.23
2019-03-17T03:08:44.219Z,98089.09
2019-03-17T03:11:32.791Z,98085.55
2019-03-17T03:14:02.272Z,98071.08
2019-03-17T03:16:31.712Z,98064.38
2019-03-17T03:19:12.906Z,98059.89
2019-03-17T03:21:42.466Z,98048.54
2019-03-17T03:24:14.444Z,98042.87
2019-03-17T03:26:47.683Z,98033.56
2019-03-17T03:29:17.085Z,98018.84
2019-03-17T03:31:46.505Z,98025.52
2019-03-17T03:34:15.929Z,98013.03
2019-03-17T03:36:49.952Z,98010.38
2019-03-17T03:39:19.319Z,97997.80
2019-03-17T03:41:48.805Z,97996.61
2019-03-17T03:44:18.179Z,97988.89
2019-03-17T03:46:49.093Z,97977.97
2019-03-17T03:49:18.546Z,97971.10
2019-03-17T03:51:47.972Z,97966.03
2019-03-17T03:54:17.463Z,97954.59
2019-03-17T03:56:48.843Z,97949.31
2019-03-17T03:59:18.235Z,97940.58
2019-03-17T04:01:47.637Z,97943.22
2019-03-17T04:04:17.169Z,97933.67
2019-03-17T04:06:47.109Z,97915.69
2019-03-17T04:09:16.509Z,97921.70
2019-03-17T04:11:46.267Z,97913.47
2019-03-17T04:14:15.762Z,97909.12
2019-03-17T04:16:53.377Z,97912.44
2019-03-17T04:19:23.001Z,97903.91
2019-03-17T04:21:55.912Z,97884.83
2019-03-17T04:29:51.162Z,97872.14
2019-03-17T04:32:45.408Z,97867.45
2019-03-17T04:35:26.425Z,97868.90
2019-03-17T04:38:14.794Z,97854.38
2019-03-17T04:40:44.319Z,97841.98
2019-03-17T04:43:32.852Z,97848.58
2019-03-17T04:48:52.576Z,97845.94
2019-03-17T04:51:22.121Z,97834.86
2019-03-17T04:53:53.103Z,97825.54
2019-03-17T04:56:44.305Z,97818.72
2019-03-17T05:05:03.411Z,97798.83
2019-03-17T05:07:51.726Z,97798.41
2019-03-17T05:10:22.829Z,97785.20
2019-03-17T05:12:52.438Z,97767.15
2019-03-17T05:15:33.862Z,97772.43
2019-03-17T05:18:03.268Z,97772.43
2019-03-17T05:20:32.673Z,97771.11
2019-03-17T05:23:21.059Z,97770.38
2019-03-17T05:26:09.355Z,97761.73
2019-03-17T05:31:20.812Z,97762.41
2019-03-17T05:33:50.254Z,97758.74
2019-03-17T05:36:31.171Z,97762.24
2019-03-17T05:39:00.764Z,97759.68
2019-03-17T05:41:30.199Z,97746.85
2019-03-17T05:43:59.739Z,97750.81
2019-03-17T05:46:29.249Z,97742.97
2019-03-17T05:54:22.462Z,97737.67
2019-03-17T05:59:46.032Z,97726.75
2019-03-17T06:02:15.452Z,97713.83
2019-03-17T06:04:44.906Z,97705.95
2019-03-17T06:07:18.970Z,97707.56
2019-03-17T06:12:21.688Z,97697.22
2019-03-17T06:14:51.099Z,97692.75
2019-03-17T06:17:20.557Z,97684.78
2019-03-17T06:20:09.370Z,97688.94
2019-03-17T06:22:42.009Z,97688.94
2019-03-17T06:25:32.118Z,97680.42
2019-03-17T06:33:33.750Z,97669.20
2019-03-17T06:36:03.174Z,97669.20
2019-03-17T06:38:42.420Z,97657.59
2019-03-17T06:41:11.965Z,97668.06
2019-03-17T06:46:29.870Z,97658.20
2019-03-17T06:48:59.338Z,97653.30
2019-03-17T06:51:28.816Z,97649.62
2019-03-17T06:54:04.490Z,97643.19
2019-03-17T06:56:33.865Z,97643.19
2019-03-17T06:59:03.309Z,97643.67
2019-03-17T07:04:07.914Z,97638.02
2019-03-17T07:09:37.312Z,97609.42
2019-03-17T07:14:52.013Z,97621.15
2019-03-17T07:20:15.765Z,97618.84
2019-03-17T07:22:45.205Z,97614.22
2019-03-17T07:25:14.556Z,97614.91
2019-03-17T07:27:46.013Z,97613.27
2019-03-17T07:30:15.512Z,97618.45
2019-03-17T07:32:44.882Z,97594.00
2019-03-17T07:35:14.600Z,97594.42
2019-03-17T07:37:55.804Z,97596.13
2019-03-17T07:40:26.896Z,97588.83
2019-03-17T07:42:57.767Z,97580.02
2019-03-17T07:45:27.317Z,97570.03
2019-03-17T07:47:56.960Z,97579.15
2019-03-17T07:50:45.336Z,97577.45
2019-03-17T07:53:26.335Z,97566.16
2019-03-17T07:56:01.388Z,97564.97
2019-03-17T07:58:30.950Z,97572.19
2019-03-17T08:01:01.283Z,97584.45
2019-03-17T08:03:43.716Z,97567.55
2019-03-17T08:06:13.271Z,97567.87
2019-03-17T08:08:44.917Z,97574.92
2019-03-17T08:11:14.407Z,97578.71
2019-03-17T08:13:43.909Z,97576.64
2019-03-17T08:16:13.332Z,97578.58
2019-03-17T08:18:43.306Z,97564.08
2019-03-17T08:21:13.041Z,97567.62
2019-03-17T08:23:42.436Z,97564.00
2019-03-17T08:26:11.896Z,97563.53
2019-03-17T08:28:41.627Z,97563.13
2019-03-17T08:31:11.080Z,97560.89
2019-03-17T08:33:40.483Z,97558.63
2019-03-17T08:36:09.909Z,97554.28
2019-03-17T08:38:39.274Z,97556.80
2019-03-17T08:41:08.732Z,97549.25
2019-03-17T08:43:38.124Z,97547.56
2019-03-17T08:46:07.523Z,97546.11
2019-03-17T08:48:36.956Z,97555.02
2019-03-17T08:51:06.357Z,97552.44
2019-03-17T08:53:35.733Z,97538.97
2019-03-17T08:58:40.826Z,97540.81
2019-03-17T09:03:46.120Z,97526.34
2019-03-17T09:06:15.752Z,97525.67
2019-03-17T09:08:45.132Z,97535.61
2019-03-17T09:11:14.507Z,97534.86
2019-03-17T09:13:44.092Z,97533.55
2019-03-17T09:16:13.543Z,97524.52
2019-03-17T09:18:42.962Z,97522.93
2019-03-17T09:21:12.426Z,97533.09
2019-03-17T09:26:30.517Z,97534.70
2019-03-17T09:29:11.716Z,97535.80
2019-03-17T09:31:41.203Z,97531.81
2019-03-17T09:34:10.576Z,97527.29
2019-03-17T09:36:39.960Z,97528.91
2019-03-17T09:39:09.599Z,97532.92
2019-03-17T09:41:38.999Z,97537.20
2019-03-17T09:44:08.381Z,97540.67
2019-03-17T09:46:56.739Z,97544.66
2019-03-17T09:49:26.150Z,97545.46
2019-03-17T09:51:55.567Z,97550.81
2019-03-17T09:54:25.071Z,97550.80
2019-03-17T09:56:54.582Z,97557.23
2019-03-17T09:59:23.958Z,97558.55
2019-03-17T10:01:53.700Z,97542.27
2019-03-17T10:04:23.071Z,97537.47
2019-03-17T10:07:03.961Z,97531.58
2019-03-17T10:09:33.505Z,97539.06
2019-03-17T10:12:02.908Z,97538.78
2019-03-17T10:14:53.318Z,97538.77
2019-03-17T10:17:22.533Z,97538.77
2019-03-17T10:19:51.926Z,97518.99
2019-03-17T10:22:21.365Z,97511.78
2019-03-17T10:24:50.763Z,97511.47
2019-03-17T10:27:39.233Z,97517.08
2019-03-17T10:30:10.398Z,97523.20
2019-03-17T10:32:39.775Z,97519.19
2019-03-17T10:35:09.438Z,97530.14
2019-03-17T10:37:38.827Z,97533.08
2019-03-17T10:40:11.097Z,97529.34
2019-03-17T10:42:42.355Z,97521.05
2019-03-17T10:45:12.167Z,97518.11
2019-03-17T10:47:41.874Z,97520.02
2019-03-17T10:50:13.217Z,97532.86
2019-03-17T10:55:33.764Z,97522.97
2019-03-17T10:58:03.383Z,97524.03
2019-03-17T11:00:32.976Z,97523.50
2019-03-17T11:03:02.442Z,97537.90
2019-03-17T11:08:41.238Z,97548.36
2019-03-17T11:11:12.170Z,97542.54
2019-03-17T11:13:41.910Z,97549.20
2019-03-17T11:16:11.293Z,97575.91
2019-03-17T11:18:40.876Z,97567.91
2019-03-17T11:21:10.381Z,97576.45
2019-03-17T11:23:39.819Z,97589.25
2019-03-17T11:26:28.261Z,97593.23
2019-03-17T11:28:57.862Z,97592.95
2019-03-17T11:31:27.702Z,97589.21
2019-03-17T11:34:19.169Z,97591.09
2019-03-17T11:42:19.734Z,97593.27
2019-03-17T11:45:00.708Z,97596.75
2019-03-17T11:47:30.226Z,97586.36
2019-03-17T11:49:59.727Z,97568.43
2019-03-17T11:52:29.599Z,97562.55
2019-03-17T11:54:58.955Z,97567.09
2019-03-17T11:57:28.411Z,97576.98
2019-03-17T11:59:58.024Z,97582.03
2019-03-17T12:02:28.822Z,97580.19
2019-03-17T12:04:58.251Z,97584.75
2019-03-17T12:07:27.779Z,97582.06
2019-03-17T12:09:57.250Z,97595.95
2019-03-17T12:12:26.775Z,97588.21
2019-03-17T12:14:56.292Z,97589.27
2019-03-17T12:17:26.092Z,97602.36
2019-03-17T12:19:55.470Z,97593.80
2019-03-17T12:22:28.807Z,97594.86
2019-03-17T12:24:58.332Z,97608.22
2019-03-17T12:27:28.062Z,97594.61
2019-03-17T12:32:25.994Z,97601.81
2019-03-17T12:34:55.396Z,97606.36
2019-03-17T12:37:29.147Z,97614.63
2019-03-17T12:40:19.293Z,97613.56
2019-03-17T12:45:36.063Z,97598.61
2019-03-17T12:48:26.337Z,97602.63
2019-03-17T12:50:56.042Z,97606.63
2019-03-17T12:53:44.066Z,97614.92
2019-03-17T12:56:19.683Z,97616.52
2019-03-17T12:58:49.084Z,97618.38
2019-03-17T13:01:18.671Z,97620.25
2019-03-17T13:03:48.953Z,97613.32
2019-03-17T13:06:19.418Z,97603.44
2019-03-17T13:08:48.902Z,97616.78
2019-03-17T13:11:18.940Z,97611.70
2019-03-17T13:16:48.265Z,97622.95
2019-03-17T13:19:17.863Z,97616.55
2019-03-17T13:22:06.195Z,97617.59
2019-03-17T13:24:48.019Z,97616.53
2019-03-17T13:27:17.474Z,97619.45
2019-03-17T13:29:46.872Z,97608.50
2019-03-17T13:32:16.267Z,97606.93
2019-03-17T13:34:45.823Z,97596.25
2019-03-17T13:37:15.226Z,97598.36
2019-03-17T13:39:44.693Z,97598.89
2019-03-17T13:42:14.240Z,97588.47
2019-03-17T13:44:43.979Z,97592.22
2019-03-17T13:47:13.391Z,97609.56
2019-03-17T13:49:42.891Z,97613.87
2019-03-17T13:52:12.325Z,97634.98
2019-03-17T13:54:41.834Z,97619.77
2019-03-17T13:57:11.348Z,97604.80
2019-03-17T13:59:44.626Z,97604.00
2019-03-17T14:02:14.174Z,97610.63
2019-03-17T14:04:43.716Z,97616.02
2019-03-17T14:07:13.289Z,97620.81
2019-03-17T14:09:42.860Z,97606.41
2019-03-17T14:12:12.337Z,97618.65
2019-03-17T14:14:41.870Z,97616.78
2019-03-17T14:20:16.569Z,97616.52
2019-03-17T14:22:46.754Z,97612.78
2019-03-17T14:25:39.201Z,97611.98
2019-03-17T14:28:27.562Z,97597.29
2019-03-17T14:31:00.076Z,97614.91
2019-03-17T14:33:29.510Z,97600.75
2019-03-17T14:36:17.964Z,97599.72
2019-03-17T14:38:47.408Z,97619.72
2019-03-17T14:41:16.809Z,97614.38
2019-03-17T14:43:46.613Z,97623.72
2019-03-17T14:46:16.361Z,97629.87
2019-03-17T14:48:46.035Z,97632.02
2019-03-17T14:53:50.742Z,97627.77
2019-03-17T14:56:20.410Z,97625.63
2019-03-17T14:58:54.053Z,97633.62
2019-03-17T15:04:18.003Z,97629.33
2019-03-17T15:06:48.141Z,97617.30
2019-03-17T15:14:51.699Z,97623.70
2019-03-17T15:22:52.784Z,97624.76
2019-03-17T15:25:34.147Z,97620.22
2019-03-17T15:30:38.968Z,97623.93
2019-03-17T15:33:08.389Z,97633.52
2019-03-17T15:35:38.377Z,97630.05
2019-03-17T15:38:07.805Z,97636.47
2019-03-17T15:40:37.456Z,97639.41
2019-03-17T15:43:06.819Z,97630.33
2019-03-17T15:45:36.410Z,97638.61
2019-03-17T15:48:05.829Z,97638.28
2019-03-17T15:50:37.121Z,97621.17
2019-03-17T15:53:06.484Z,97624.34
2019-03-17T15:55:35.928Z,97617.05
2019-03-17T15:58:05.293Z,97621.29
2019-03-17T16:00:34.741Z,97616.98
2019-03-17T16:03:04.271Z,97615.59
2019-03-17T16:05:52.849Z,97624.86
2019-03-17T16:08:22.313Z,97614.09
2019-03-17T16:10:51.687Z,97618.78
2019-03-17T16:13:21.083Z,97622.19
2019-03-17T16:15:50.489Z,97625.05
2019-03-17T16:18:38.846Z,97625.75
2019-03-17T16:21:09.101Z,97631.58
2019-03-17T16:23:57.535Z,97638.42
2019-03-17T16:26:38.692Z,97634.59
2019-03-17T16:29:08.064Z,97632.38
2019-03-17T16:31:37.486Z,97638.47
2019-03-17T16:34:07.976Z,97640.57
2019-03-17T16:36:37.367Z,97644.31
2019-03-17T16:39:08.583Z,97650.97
2019-03-17T16:41:43.239Z,97654.16
2019-03-17T16:44:11.824Z,97652.27
2019-03-17T16:46:41.248Z,97661.58
2019-03-17T16:49:12.759Z,97651.98
2019-03-17T16:51:42.194Z,97648.52
2019-03-17T16:54:11.687Z,97652.20
2019-03-17T16:56:41.098Z,97664.70
2019-03-17T16:59:10.516Z,97664.70
2019-03-17T17:01:39.954Z,97659.63
2019-03-17T17:04:09.911Z,97651.33
2019-03-17T17:06:39.313Z,97669.56
2019-03-17T17:09:09.024Z,97669.28
2019-03-17T17:11:38.454Z,97678.02
2019-03-17T17:14:07.949Z,97676.91
2019-03-17T17:16:37.377Z,97675.78
2019-03-17T17:22:00.850Z,97672.23
2019-03-17T17:24:30.344Z,97671.64
2019-03-17T17:26:59.805Z,97663.11
2019-03-17T17:29:29.400Z,97673.73
2019-03-17T17:32:01.578Z,97668.66
2019-03-17T17:34:33.116Z,97676.91
2019-03-17T17:37:02.689Z,97667.33
2019-03-17T17:39:32.200Z,97666.24
2019-03-17T17:42:08.957Z,97670.23
2019-03-17T17:44:44.643Z,97674.95
2019-03-17T17:47:14.223Z,97684.20
2019-03-17T17:49:50.074Z,97677.52
2019-03-17T17:52:19.454Z,97698.21
2019-03-17T17:54:49.030Z,97699.78
2019-03-17T17:57:18.417Z,97704.29
2019-03-17T17:59:47.902Z,97694.95
2019-03-17T18:02:17.378Z,97691.67
2019-03-17T18:04:46.994Z,97693.16
2019-03-17T18:07:16.382Z,97704.55
2019-03-17T18:09:45.765Z,97705.06
2019-03-17T18:12:21.071Z,97704.97
2019-03-17T18:14:46.459Z,97706.73
2019-03-17T18:17:15.845Z,97713.45
2019-03-17T18:19:45.369Z,97707.52
2019-03-17T18:22:33.671Z,97698.94
2019-03-17T18:25:03.388Z,97710.02
2019-03-17T18:27:32.941Z,97710.97
2019-03-17T18:30:02.376Z,97711.91
2019-03-17T18:35:07.173Z,97706.65
2019-03-17T18:37:50.939Z,97711.00
2019-03-17T18:40:19.765Z,97710.90
2019-03-17T18:42:49.471Z,97711.89
2019-03-17T18:45:19.435Z,97709.18
2019-03-17T18:48:08.101Z,97706.42
2019-03-17T18:50:37.614Z,97703.98
2019-03-17T18:53:25.933Z,97704.11
2019-03-17T18:58:36.638Z,97714.11
2019-03-17T19:01:06.119Z,97701.73
2019-03-17T19:03:35.652Z,97695.25
2019-03-17T19:06:05.267Z,97681.31
2019-03-17T19:08:35.016Z,97693.38
2019-03-17T19:11:04.568Z,97684.56
2019-03-17T19:13:34.370Z,97695.11
2019-03-17T19:16:03.818Z,97709.68
2019-03-17T19:18:33.246Z,97705.36
2019-03-17T19:21:02.760Z,97709.05
2019-03-17T19:23:50.984Z,97708.27
2019-03-17T19:26:20.444Z,97718.00
2019-03-17T19:28:50.339Z,97713.22
2019-03-17T19:31:19.843Z,97715.06
2019-03-17T19:33:49.339Z,97714.26
2019-03-17T19:36:18.769Z,97716.04
2019-03-17T19:38:50.790Z,97708.03
2019-03-17T19:41:20.334Z,97715.92
2019-03-17T19:43:49.958Z,97704.20
2019-03-17T19:46:38.443Z,97699.13
2019-03-17T19:52:02.276Z,97694.22
2019-03-17T19:54:32.217Z,97692.32
2019-03-17T19:57:01.674Z,97686.94
2019-03-17T19:59:51.916Z,97703.80
2019-03-17T20:02:41.579Z,97687.84
2019-03-17T20:05:10.958Z,97687.84
2019-03-17T20:07:40.995Z,97688.07
2019-03-17T20:10:12.641Z,97693.08
2019-03-17T20:12:42.147Z,97691.75
2019-03-17T20:15:11.520Z,97700.80
2019-03-17T20:17:41.567Z,97707.41
2019-03-17T20:20:11.787Z,97692.11
2019-03-17T20:22:41.267Z,97684.16
2019-03-17T20:25:11.199Z,97687.62
2019-03-17T20:30:29.226Z,97681.64
2019-03-17T20:32:58.619Z,97679.80
2019-03-17T20:35:28.155Z,97672.14
2019-03-17T20:37:57.835Z,97666.13
2019-03-17T20:45:57.271Z,97655.08
2019-03-17T20:48:26.769Z,97649.78
2019-03-17T20:50:59.073Z,97652.14
2019-03-17T20:53:27.368Z,97651.33
2019-03-17T20:55:56.974Z,97658.16
2019-03-17T20:58:26.375Z,97653.60
2019-03-17T21:00:56.214Z,97649.86
2019-03-17T21:03:37.212Z,97650.38
2019-03-17T21:06:06.599Z,97643.47
2019-03-17T21:08:36.053Z,97655.90
2019-03-17T21:11:24.471Z,97654.58
2019-03-17T21:17:01.355Z,97656.25
2019-03-17T21:19:31.053Z,97673.33
2019-03-17T21:22:00.590Z,97658.59
2019-03-17T21:24:44.582Z,97654.96
2019-03-17T21:27:20.239Z,97664.00
2019-03-17T21:29:50.990Z,97664.00
2019-03-17T21:32:20.477Z,97658.50
2019-03-17T21:34:49.895Z,97656.43
2019-03-17T21:37:19.383Z,97662.94
2019-03-17T21:39:50.814Z,97664.27
2019-03-17T21:42:20.322Z,97660.61
2019-03-17T21:44:49.912Z,97653.46
2019-03-17T21:47:19.340Z,97645.74
2019-03-17T21:49:48.903Z,97647.06
2019-03-17T21:54:53.134Z,97644.68
2019-03-17T21:57:34.376Z,97639.61
2019-03-17T22:00:05.412Z,97642.78
2019-03-17T22:02:34.813Z,97645.95
2019-03-17T22:05:23.238Z,97640.88
2019-03-17T22:07:52.646Z,97636.91
2019-03-17T22:10:22.056Z,97652.75
2019-03-17T22:12:56.203Z,97644.80
2019-03-17T22:15:25.874Z,97633.68
2019-03-17T22:18:13.337Z,97651.19
2019-03-17T22:25:59.077Z,97644.05
2019-03-17T22:28:32.380Z,97656.84
2019-03-17T22:31:01.814Z,97638.31
2019-03-17T22:36:21.259Z,97661.09
2019-03-17T22:38:50.627Z,97651.30
2019-03-17T22:41:20.256Z,97653.14
2019-03-17T22:43:49.849Z,97651.53
2019-03-17T22:46:38.342Z,97645.72
2019-03-17T22:49:19.512Z,97644.91
2019-03-17T22:51:51.241Z,97645.72
2019-03-17T22:54:20.628Z,97638.00
2019-03-17T22:56:50.344Z,97624.18
2019-03-17T22:59:19.864Z,97629.77
2019-03-17T23:01:49.340Z,97635.81
2019-03-17T23:04:37.784Z,97635.52
2019-03-17T23:07:07.148Z,97638.92
2019-03-17T23:09:36.551Z,97629.05
2019-03-17T23:12:05.969Z,97638.27
2019-03-17T23:14:36.978Z,97631.75
2019-03-17T23:17:06.485Z,97633.54
2019-03-17T23:22:10.346Z,97626.08
2019-03-17T23:24:39.800Z,97620.50
2019-03-17T23:27:09.220Z,97620.95
2019-03-17T23:29:38.621Z,97629.83
2019-03-17T23:34:43.093Z,97633.37
2019-03-17T23:37:12.543Z,97636.08
2019-03-17T23:40:01.483Z,97629.39
2019-03-17T23:45:32.631Z,97641.72
2019-03-17T23:48:02.301Z,97637.98
2019-03-17T23:50:32.302Z,97641.38
2019-03-17T23:53:01.855Z,97641.38
2019-03-17T23:55:31.434Z,97647.65
2019-03-17T23:58:03.786Z,97647.65
